Time,TemperatureF,DewpointF,PressureIn,WindDirection,WindDirectionDegrees,WindSpeedMPH,WindSpeedGustMPH,Humidity,HourlyPrecipIn,Conditions,Clouds,dailyrainin,SoftwareType,DateUTC
2013-03-03 00:00:00,29.4,27.6,30.13,East,96,0.0,0.0,93,0.00,,,0.00,Wunderground v.1.15,2013-03-03 06:00:00,
2013-03-03 00:10:00,29.6,27.8,30.13,SE,124,0.0,0.0,93,0.00,,,0.00,Wunderground v.1.15,2013-03-03 06:10:00,
2013-03-03 00:20:00,29.7,27.7,30.12,SE,124,0.0,0.0,92,0.00,,,0.00,Wunderground v.1.15,2013-03-03 06:20:00,
2013-03-03 00:30:00,29.7,27.7,30.11,East,96,0.0,0.0,92,0.00,,,0.00,Wunderground v.1.15,2013-03-03 06:30:00,
2013-03-03 00:40:00,29.8,27.8,30.11,ESE,105,0.0,0.0,92,0.00,,,0.00,Wunderground v.1.15,2013-03-03 06:40:00,
2013-03-03 00:50:00,29.7,27.7,30.11,ESE,105,0.0,0.0,92,0.00,,,0.00,Wunderground v.1.15,2013-03-03 06:50:00,
2013-03-03 01:00:00,29.7,27.7,30.11,ESE,105,0.0,0.0,92,0.00,,,0.00,Wunderground v.1.15,2013-03-03 07:00:00,
2013-03-03 01:10:00,29.4,27.4,30.11,ESE,104,0.0,0.0,92,0.00,,,0.00,Wunderground v.1.15,2013-03-03 07:10:00,
2013-03-03 01:20:00,29.7,27.9,30.10,ESE,104,0.0,0.0,93,0.00,,,0.00,Wunderground v.1.15,2013-03-03 07:20:00,
2013-03-03 01:30:00,29.4,27.6,30.10,ESE,104,0.0,0.0,93,0.00,,,0.00,Wunderground v.1.15,2013-03-03 07:30:00,
2013-03-03 01:40:00,29.1,27.1,30.10,ESE,105,0.0,0.0,92,0.00,,,0.00,Wunderground v.1.15,2013-03-03 07:40:00,
2013-03-03 01:50:00,28.7,26.9,30.09,ESE,105,0.0,0.0,93,0.00,,,0.00,Wunderground v.1.15,2013-03-03 07:50:00,
2013-03-03 02:00:00,28.7,26.9,30.09,NNE,27,0.0,0.0,93,0.00,,,0.00,Wunderground v.1.15,2013-03-03 08:00:00,
2013-03-03 02:10:00,28.3,26.5,30.08,NNE,27,0.0,0.0,93,0.00,,,0.00,Wunderground v.1.15,2013-03-03 08:10:00,
2013-03-03 02:20:00,28.1,26.3,30.08,NNE,27,0.0,0.0,93,0.00,,,0.00,Wunderground v.1.15,2013-03-03 08:20:00,
2013-03-03 02:30:00,28.0,26.2,30.07,NNE,27,0.0,0.0,93,0.00,,,0.00,Wunderground v.1.15,2013-03-03 08:30:00,
2013-03-03 02:40:00,28.2,26.7,30.06,NNE,27,0.0,0.0,94,0.00,,,0.00,Wunderground v.1.15,2013-03-03 08:40:00,
2013-03-03 02:50:00,27.8,26.0,30.05,NNE,27,0.0,0.0,93,0.00,,,0.00,Wunderground v.1.15,2013-03-03 08:50:00,
2013-03-03 03:00:00,27.6,25.8,30.04,NNE,27,0.0,0.0,93,0.00,,,0.00,Wunderground v.1.15,2013-03-03 09:00:00,
2013-03-03 03:10:00,27.3,25.8,30.04,NNE,27,0.0,0.0,94,0.00,,,0.00,Wunderground v.1.15,2013-03-03 09:10:00,
2013-03-03 03:20:00,27.4,25.9,30.03,NNE,27,0.0,0.0,94,0.00,,,0.00,Wunderground v.1.15,2013-03-03 09:20:00,
2013-03-03 03:30:00,27.1,25.6,30.02,NNE,27,0.0,0.0,94,0.00,,,0.00,Wunderground v.1.15,2013-03-03 09:30:00,
2013-03-03 03:40:00,26.6,25.1,30.02,NW,323,0.0,0.0,94,0.00,,,0.00,Wunderground v.1.15,2013-03-03 09:40:00,
2013-03-03 03:50:00,26.6,25.1,30.01,NW,323,0.0,0.0,94,0.00,,,0.00,Wunderground v.1.15,2013-03-03 09:50:00,
2013-03-03 04:00:00,26.2,24.7,30.01,NW,323,0.0,0.0,94,0.00,,,0.00,Wunderground v.1.15,2013-03-03 10:00:00,
2013-03-03 04:10:00,25.4,23.9,30.01,NW,323,0.0,0.0,94,0.00,,,0.00,Wunderground v.1.15,2013-03-03 10:10:00,
2013-03-03 04:20:00,25.0,23.5,30.01,NW,323,0.0,0.0,94,0.00,,,0.00,Wunderground v.1.15,2013-03-03 10:20:00,
2013-03-03 04:30:00,25.0,23.5,30.00,NW,323,0.0,0.0,94,0.00,,,0.00,Wunderground v.1.15,2013-03-03 10:30:00,
2013-03-03 04:40:00,24.5,23.0,30.00,NW,323,0.0,0.0,94,0.00,,,0.00,Wunderground v.1.15,2013-03-03 10:40:00,
2013-03-03 04:50:00,24.5,23.3,29.99,SSW,196,0.0,0.0,95,0.00,,,0.00,Wunderground v.1.15,2013-03-03 10:50:00,
2013-03-03 05:00:00,24.2,23.0,29.99,WNW,283,0.0,0.0,95,0.00,,,0.00,Wunderground v.1.15,2013-03-03 11:00:00,
2013-03-03 05:10:00,24.0,22.8,29.98,WNW,283,0.0,0.0,95,0.00,,,0.00,Wunderground v.1.15,2013-03-03 11:10:00,
2013-03-03 05:20:00,24.3,23.1,29.98,NW,309,0.0,0.0,95,0.00,,,0.00,Wunderground v.1.15,2013-03-03 11:20:00,
2013-03-03 05:30:00,24.0,22.5,29.98,NW,309,0.0,0.0,94,0.00,,,0.00,Wunderground v.1.15,2013-03-03 11:30:00,
2013-03-03 05:40:00,24.0,22.8,29.98,NW,309,0.0,0.0,95,0.00,,,0.00,Wunderground v.1.15,2013-03-03 11:40:00,
2013-03-03 05:50:00,24.5,23.3,29.98,NW,309,0.0,0.0,95,0.00,,,0.00,Wunderground v.1.15,2013-03-03 11:50:00,
2013-03-03 06:00:00,24.2,23.0,29.97,NW,309,0.0,0.0,95,0.00,,,0.00,Wunderground v.1.15,2013-03-03 12:00:00,
2013-03-03 06:10:00,24.5,23.3,29.97,NW,309,0.0,0.0,95,0.00,,,0.00,Wunderground v.1.15,2013-03-03 12:10:00,
2013-03-03 06:20:00,24.5,23.3,29.97,NW,309,0.0,0.0,95,0.00,,,0.00,Wunderground v.1.15,2013-03-03 12:20:00,
2013-03-03 06:30:00,24.2,23.0,29.97,NW,309,0.0,0.0,95,0.00,,,0.00,Wunderground v.1.15,2013-03-03 12:30:00,
2013-03-03 06:40:00,24.2,23.0,29.96,NW,309,0.0,0.0,95,0.00,,,0.00,Wunderground v.1.15,2013-03-03 12:40:00,
2013-03-03 06:50:00,23.7,22.5,29.97,NW,309,0.0,0.0,95,0.00,,,0.00,Wunderground v.1.15,2013-03-03 12:50:00,
2013-03-03 07:00:00,23.2,22.0,29.97,NW,309,0.0,0.0,95,0.00,,,0.00,Wunderground v.1.15,2013-03-03 13:00:00,
2013-03-03 07:10:00,22.9,21.7,29.96,NW,309,0.0,0.0,95,0.00,,,0.00,Wunderground v.1.15,2013-03-03 13:10:00,
2013-03-03 07:20:00,23.0,21.8,29.96,NW,309,0.0,0.0,95,0.00,,,0.00,Wunderground v.1.15,2013-03-03 13:20:00,
2013-03-03 07:30:00,23.1,21.9,29.95,NW,309,0.0,0.0,95,0.00,,,0.00,Wunderground v.1.15,2013-03-03 13:30:00,
2013-03-03 07:40:00,23.3,22.1,29.95,NW,309,0.0,0.0,95,0.00,,,0.00,Wunderground v.1.15,2013-03-03 13:40:00,
2013-03-03 07:50:00,23.8,22.6,29.95,NW,309,0.0,0.0,95,0.00,,,0.00,Wunderground v.1.15,2013-03-03 13:50:00,
2013-03-03 08:00:00,24.7,23.5,29.95,NW,309,0.0,0.0,95,0.00,,,0.00,Wunderground v.1.15,2013-03-03 14:00:00,
2013-03-03 08:10:00,25.5,24.3,29.94,NW,309,0.0,0.0,95,0.00,,,0.00,Wunderground v.1.15,2013-03-03 14:10:00,
2013-03-03 08:20:00,25.9,24.7,29.94,WNW,302,0.0,0.0,95,0.00,,,0.00,Wunderground v.1.15,2013-03-03 14:20:00,
2013-03-03 08:30:00,26.6,25.1,29.94,WNW,302,0.0,0.0,94,0.00,,,0.00,Wunderground v.1.15,2013-03-03 14:30:00,
2013-03-03 08:40:00,26.9,25.4,29.94,WNW,302,0.0,0.0,94,0.00,,,0.00,Wunderground v.1.15,2013-03-03 14:40:00,
2013-03-03 08:50:00,27.7,26.2,29.93,WNW,302,0.0,0.0,94,0.00,,,0.00,Wunderground v.1.15,2013-03-03 14:50:00,
2013-03-03 09:00:00,28.2,26.4,29.93,WNW,302,0.0,0.0,93,0.00,,,0.00,Wunderground v.1.15,2013-03-03 15:00:00,
2013-03-03 09:10:00,29.4,27.6,29.93,WNW,302,0.0,0.0,93,0.00,,,0.00,Wunderground v.1.15,2013-03-03 15:10:00,
2013-03-03 09:20:00,32.6,30.5,29.92,WNW,302,0.0,0.0,92,0.00,,,0.00,Wunderground v.1.15,2013-03-03 15:20:00,
2013-03-03 09:30:00,34.9,31.1,29.92,WNW,302,0.0,0.0,86,0.00,,,0.00,Wunderground v.1.15,2013-03-03 15:30:00,
2013-03-03 09:40:00,35.6,30.3,29.92,WNW,302,0.0,0.0,81,0.00,,,0.00,Wunderground v.1.15,2013-03-03 15:40:00,
2013-03-03 09:50:00,35.2,30.9,29.92,WNW,302,0.0,0.0,84,0.00,,,0.00,Wunderground v.1.15,2013-03-03 15:50:00,
2013-03-03 10:00:00,35.3,30.7,29.92,West,274,0.0,0.0,83,0.00,,,0.00,Wunderground v.1.15,2013-03-03 16:00:00,
2013-03-03 10:10:00,35.7,31.3,29.91,West,273,0.0,0.0,84,0.00,,,0.00,Wunderground v.1.15,2013-03-03 16:10:00,
2013-03-03 10:20:00,37.2,32.5,29.90,NNW,345,0.0,0.0,83,0.00,,,0.00,Wunderground v.1.15,2013-03-03 16:20:00,
2013-03-03 10:30:00,38.1,32.5,29.90,NW,321,0.0,0.0,80,0.00,,,0.00,Wunderground v.1.15,2013-03-03 16:30:00,
2013-03-03 10:40:00,40.0,33.4,29.90,NW,317,0.0,0.0,77,0.00,,,0.00,Wunderground v.1.15,2013-03-03 16:40:00,